sensor_id;sensor_type;location;lat;lon;timestamp;P1;durP1;ratioP1;P2;durP2;ratioP2
64242;SDS011;50573;51.512;5.386;2022-12-10T00:09:52;130.80;;;45.72;;
64242;SDS011;50573;51.512;5.386;2022-12-10T00:19:54;159.45;;;51.83;;
64242;SDS011;50573;51.512;5.386;2022-12-10T00:29:59;141.75;;;47.00;;
64242;SDS011;50573;51.512;5.386;2022-12-10T00:40:02;152.10;;;47.70;;
64242;SDS011;50573;51.512;5.386;2022-12-10T00:50:09;131.48;;;46.83;;
64242;SDS011;50573;51.512;5.386;2022-12-10T01:00:12;140.32;;;45.28;;
64242;SDS011;50573;51.512;5.386;2022-12-10T01:10:17;114.30;;;36.50;;
64242;SDS011;50573;51.512;5.386;2022-12-10T01:20:20;138.70;;;48.45;;
64242;SDS011;50573;51.512;5.386;2022-12-10T01:30:25;141.43;;;46.53;;
64242;SDS011;50573;51.512;5.386;2022-12-10T01:50:33;235.05;;;59.92;;
64242;SDS011;50573;51.512;5.386;2022-12-10T02:00:41;269.52;;;59.40;;
64242;SDS011;50573;51.512;5.386;2022-12-10T02:10:58;321.38;;;67.15;;
64242;SDS011;50573;51.512;5.386;2022-12-10T02:21:11;304.38;;;66.40;;
64242;SDS011;50573;51.512;5.386;2022-12-10T02:31:21;227.98;;;58.08;;
64242;SDS011;50573;51.512;5.386;2022-12-10T02:41:27;185.75;;;53.67;;
64242;SDS011;50573;51.512;5.386;2022-12-10T02:51:37;202.15;;;55.58;;
64242;SDS011;50573;51.512;5.386;2022-12-10T03:11:50;183.73;;;51.67;;
64242;SDS011;50573;51.512;5.386;2022-12-10T03:22:00;172.10;;;49.72;;
64242;SDS011;50573;51.512;5.386;2022-12-10T03:32:06;191.88;;;53.60;;
64242;SDS011;50573;51.512;5.386;2022-12-10T03:52:14;204.05;;;52.63;;
64242;SDS011;50573;51.512;5.386;2022-12-10T04:02:17;246.25;;;57.85;;
64242;SDS011;50573;51.512;5.386;2022-12-10T04:12:21;264.77;;;59.25;;
64242;SDS011;50573;51.512;5.386;2022-12-10T04:22:24;314.55;;;65.28;;
64242;SDS011;50573;51.512;5.386;2022-12-10T04:32:58;231.60;;;55.20;;
64242;SDS011;50573;51.512;5.386;2022-12-10T04:43:01;237.13;;;56.22;;
64242;SDS011;50573;51.512;5.386;2022-12-10T04:53:05;251.63;;;59.03;;
64242;SDS011;50573;51.512;5.386;2022-12-10T05:03:08;216.82;;;55.15;;
64242;SDS011;50573;51.512;5.386;2022-12-10T05:13:12;248.40;;;54.35;;
64242;SDS011;50573;51.512;5.386;2022-12-10T05:23:15;269.45;;;56.10;;
64242;SDS011;50573;51.512;5.386;2022-12-10T05:33:32;230.07;;;52.30;;
64242;SDS011;50573;51.512;5.386;2022-12-10T05:43:35;237.48;;;56.05;;
64242;SDS011;50573;51.512;5.386;2022-12-10T05:53:39;245.60;;;48.55;;
64242;SDS011;50573;51.512;5.386;2022-12-10T06:03:43;223.15;;;52.28;;
64242;SDS011;50573;51.512;5.386;2022-12-10T06:13:48;220.57;;;51.15;;
64242;SDS011;50573;51.512;5.386;2022-12-10T06:23:56;210.50;;;47.10;;
64242;SDS011;50573;51.512;5.386;2022-12-10T06:34:01;229.70;;;51.10;;
64242;SDS011;50573;51.512;5.386;2022-12-10T06:44:06;216.93;;;47.95;;
64242;SDS011;50573;51.512;5.386;2022-12-10T06:54:11;234.82;;;50.45;;
64242;SDS011;50573;51.512;5.386;2022-12-10T07:04:15;257.67;;;56.55;;
64242;SDS011;50573;51.512;5.386;2022-12-10T07:14:19;266.15;;;56.47;;
64242;SDS011;50573;51.512;5.386;2022-12-10T07:24:22;237.50;;;56.28;;
64242;SDS011;50573;51.512;5.386;2022-12-10T07:34:27;209.70;;;53.03;;
64242;SDS011;50573;51.512;5.386;2022-12-10T07:44:30;251.40;;;54.92;;
64242;SDS011;50573;51.512;5.386;2022-12-10T07:54:34;261.38;;;54.28;;
64242;SDS011;50573;51.512;5.386;2022-12-10T08:04:37;279.05;;;53.25;;
64242;SDS011;50573;51.512;5.386;2022-12-10T08:14:42;304.25;;;59.58;;
64242;SDS011;50573;51.512;5.386;2022-12-10T08:24:45;247.65;;;55.90;;
64242;SDS011;50573;51.512;5.386;2022-12-10T08:34:49;259.83;;;54.08;;
64242;SDS011;50573;51.512;5.386;2022-12-10T08:54:57;401.73;;;55.67;;
64242;SDS011;50573;51.512;5.386;2022-12-10T09:05:00;254.40;;;49.72;;
64242;SDS011;50573;51.512;5.386;2022-12-10T09:15:07;220.50;;;43.67;;
64242;SDS011;50573;51.512;5.386;2022-12-10T09:25:11;344.00;;;65.43;;
64242;SDS011;50573;51.512;5.386;2022-12-10T09:35:18;185.10;;;41.78;;
64242;SDS011;50573;51.512;5.386;2022-12-10T09:45:22;199.10;;;45.58;;
64242;SDS011;50573;51.512;5.386;2022-12-10T09:55:34;170.70;;;43.47;;
64242;SDS011;50573;51.512;5.386;2022-12-10T10:05:40;171.48;;;39.58;;
64242;SDS011;50573;51.512;5.386;2022-12-10T10:15:46;246.88;;;66.90;;
64242;SDS011;50573;51.512;5.386;2022-12-10T10:25:50;129.20;;;37.65;;
64242;SDS011;50573;51.512;5.386;2022-12-10T10:35:55;145.60;;;38.20;;
64242;SDS011;50573;51.512;5.386;2022-12-10T10:46:01;132.48;;;39.47;;
64242;SDS011;50573;51.512;5.386;2022-12-10T10:56:08;173.73;;;39.63;;
64242;SDS011;50573;51.512;5.386;2022-12-10T11:06:17;216.82;;;44.28;;
64242;SDS011;50573;51.512;5.386;2022-12-10T11:16:23;122.47;;;35.35;;
64242;SDS011;50573;51.512;5.386;2022-12-10T11:26:37;135.57;;;36.97;;
64242;SDS011;50573;51.512;5.386;2022-12-10T11:37:00;163.13;;;39.72;;
64242;SDS011;50573;51.512;5.386;2022-12-10T11:47:18;122.10;;;36.30;;
64242;SDS011;50573;51.512;5.386;2022-12-10T11:57:36;109.70;;;32.45;;
64242;SDS011;50573;51.512;5.386;2022-12-10T12:07:48;136.97;;;35.13;;
64242;SDS011;50573;51.512;5.386;2022-12-10T12:18:00;149.65;;;37.10;;
64242;SDS011;50573;51.512;5.386;2022-12-10T12:28:09;138.93;;;36.85;;
64242;SDS011;50573;51.512;5.386;2022-12-10T12:38:21;121.20;;;35.00;;
64242;SDS011;50573;51.512;5.386;2022-12-10T12:48:32;114.68;;;34.92;;
64242;SDS011;50573;51.512;5.386;2022-12-10T12:58:45;113.70;;;34.58;;
64242;SDS011;50573;51.512;5.386;2022-12-10T13:08:57;110.95;;;32.45;;
64242;SDS011;50573;51.512;5.386;2022-12-10T13:19:22;105.50;;;33.03;;
64242;SDS011;50573;51.512;5.386;2022-12-10T13:29:28;82.00;;;27.80;;
64242;SDS011;50573;51.512;5.386;2022-12-10T13:39:52;107.63;;;30.98;;
64242;SDS011;50573;51.512;5.386;2022-12-10T13:50:02;101.13;;;29.02;;
64242;SDS011;50573;51.512;5.386;2022-12-10T14:00:12;114.75;;;34.67;;
64242;SDS011;50573;51.512;5.386;2022-12-10T14:10:18;113.85;;;32.45;;
64242;SDS011;50573;51.512;5.386;2022-12-10T14:20:28;111.72;;;32.42;;
64242;SDS011;50573;51.512;5.386;2022-12-10T14:30:34;139.10;;;35.03;;
64242;SDS011;50573;51.512;5.386;2022-12-10T14:40:47;147.15;;;35.30;;
64242;SDS011;50573;51.512;5.386;2022-12-10T14:50:50;154.52;;;33.83;;
64242;SDS011;50573;51.512;5.386;2022-12-10T15:00:55;141.73;;;36.35;;
64242;SDS011;50573;51.512;5.386;2022-12-10T15:11:00;153.82;;;41.22;;
64242;SDS011;50573;51.512;5.386;2022-12-10T15:21:14;154.50;;;39.08;;
64242;SDS011;50573;51.512;5.386;2022-12-10T15:51:49;180.35;;;40.92;;
64242;SDS011;50573;51.512;5.386;2022-12-10T16:01:52;172.88;;;41.25;;
64242;SDS011;50573;51.512;5.386;2022-12-10T16:11:57;181.65;;;42.90;;
64242;SDS011;50573;51.512;5.386;2022-12-10T16:22:00;169.73;;;40.70;;
64242;SDS011;50573;51.512;5.386;2022-12-10T16:32:04;177.25;;;42.67;;
64242;SDS011;50573;51.512;5.386;2022-12-10T16:42:08;163.93;;;40.15;;
64242;SDS011;50573;51.512;5.386;2022-12-10T16:52:13;170.87;;;42.27;;
64242;SDS011;50573;51.512;5.386;2022-12-10T17:02:17;174.68;;;39.58;;
64242;SDS011;50573;51.512;5.386;2022-12-10T17:22:30;157.77;;;40.33;;
64242;SDS011;50573;51.512;5.386;2022-12-10T17:32:35;174.57;;;45.25;;
64242;SDS011;50573;51.512;5.386;2022-12-10T17:42:38;200.87;;;41.00;;
64242;SDS011;50573;51.512;5.386;2022-12-10T17:52:42;222.13;;;54.15;;
64242;SDS011;50573;51.512;5.386;2022-12-10T18:02:45;220.45;;;50.28;;
64242;SDS011;50573;51.512;5.386;2022-12-10T18:12:50;211.00;;;46.75;;
64242;SDS011;50573;51.512;5.386;2022-12-10T18:22:55;267.52;;;63.20;;
64242;SDS011;50573;51.512;5.386;2022-12-10T18:32:59;233.55;;;51.90;;
64242;SDS011;50573;51.512;5.386;2022-12-10T18:43:02;213.43;;;51.07;;
64242;SDS011;50573;51.512;5.386;2022-12-10T18:53:07;217.18;;;48.60;;
64242;SDS011;50573;51.512;5.386;2022-12-10T19:03:10;136.35;;;37.55;;
64242;SDS011;50573;51.512;5.386;2022-12-10T19:13:15;137.38;;;38.22;;
64242;SDS011;50573;51.512;5.386;2022-12-10T19:23:19;110.40;;;34.72;;
64242;SDS011;50573;51.512;5.386;2022-12-10T19:33:24;122.35;;;36.00;;
64242;SDS011;50573;51.512;5.386;2022-12-10T19:43:27;131.02;;;38.92;;
64242;SDS011;50573;51.512;5.386;2022-12-10T19:53:31;130.05;;;36.90;;
64242;SDS011;50573;51.512;5.386;2022-12-10T20:03:34;152.27;;;40.53;;
64242;SDS011;50573;51.512;5.386;2022-12-10T20:13:39;157.60;;;43.92;;
64242;SDS011;50573;51.512;5.386;2022-12-10T20:23:43;215.23;;;48.92;;
64242;SDS011;50573;51.512;5.386;2022-12-10T20:33:48;221.70;;;52.05;;
64242;SDS011;50573;51.512;5.386;2022-12-10T20:43:51;203.43;;;48.65;;
64242;SDS011;50573;51.512;5.386;2022-12-10T20:53:55;221.27;;;49.72;;
64242;SDS011;50573;51.512;5.386;2022-12-10T21:03:58;218.73;;;47.15;;
64242;SDS011;50573;51.512;5.386;2022-12-10T21:14:03;199.25;;;47.70;;
64242;SDS011;50573;51.512;5.386;2022-12-10T21:24:18;210.30;;;45.90;;
64242;SDS011;50573;51.512;5.386;2022-12-10T21:34:23;194.82;;;46.50;;
64242;SDS011;50573;51.512;5.386;2022-12-10T21:44:26;168.18;;;45.47;;
64242;SDS011;50573;51.512;5.386;2022-12-10T21:54:30;147.38;;;39.85;;
64242;SDS011;50573;51.512;5.386;2022-12-10T22:04:34;163.05;;;41.85;;
64242;SDS011;50573;51.512;5.386;2022-12-10T22:14:39;154.10;;;41.70;;
64242;SDS011;50573;51.512;5.386;2022-12-10T22:24:43;158.32;;;43.03;;
64242;SDS011;50573;51.512;5.386;2022-12-10T22:34:47;196.98;;;47.13;;
64242;SDS011;50573;51.512;5.386;2022-12-10T22:44:50;193.20;;;45.97;;
64242;SDS011;50573;51.512;5.386;2022-12-10T22:54:55;192.23;;;46.38;;
64242;SDS011;50573;51.512;5.386;2022-12-10T23:04:58;202.75;;;49.95;;
64242;SDS011;50573;51.512;5.386;2022-12-10T23:15:02;204.55;;;49.85;;
64242;SDS011;50573;51.512;5.386;2022-12-10T23:35:11;201.55;;;51.33;;
64242;SDS011;50573;51.512;5.386;2022-12-10T23:45:15;207.63;;;48.40;;
64242;SDS011;50573;51.512;5.386;2022-12-10T23:55:22;217.68;;;51.55;;
